Time;durP1;ratioP1;P1;durP2;ratioP2;P2;SDS_P1;SDS_P2;PMS_P1;PMS_P2;Temp;Humidity;BMP_temperature;BMP_pressure;BME280_temperature;BME280_humidity;BME280_pressure;Samples;Min_cycle;Max_cycle;Signal;HPM_P1;HPM_P2
2023/05/07 00:01:49;;;;;;;2.57;2.47;;;25.10;59.00;;;;;;5072489;28;20805;-74
2023/05/07 00:04:17;;;;;;;2.60;2.40;;;25.10;59.00;;;;;;5072705;28;20450;-75
2023/05/07 00:06:46;;;;;;;2.63;2.53;;;25.10;59.00;;;;;;5071374;28;20487;-74
2023/05/07 00:09:14;;;;;;;2.73;2.53;;;25.10;59.00;;;;;;5060549;28;20543;-74
2023/05/07 00:11:42;;;;;;;2.47;2.37;;;25.10;59.00;;;;;;5033734;28;20466;-74
2023/05/07 00:14:10;;;;;;;2.40;2.30;;;25.10;59.00;;;;;;5066057;28;20444;-74
2023/05/07 00:16:38;;;;;;;2.67;2.47;;;25.10;59.00;;;;;;5063336;28;20459;-74
2023/05/07 00:19:08;;;;;;;3.27;3.07;;;25.10;59.00;;;;;;5071812;28;20500;-73
2023/05/07 00:21:36;;;;;;;2.90;2.70;;;25.10;59.00;;;;;;5072239;28;20543;-74
2023/05/07 00:24:05;;;;;;;2.63;2.53;;;25.10;59.00;;;;;;5062416;28;21002;-74
2023/05/07 00:26:33;;;;;;;3.10;2.90;;;25.10;59.00;;;;;;5054851;28;20508;-74
2023/05/07 00:29:01;;;;;;;3.10;2.90;;;25.00;59.10;;;;;;5054298;28;20841;-75
2023/05/07 00:31:29;;;;;;;2.40;2.30;;;25.10;59.10;;;;;;5072013;28;20524;-73
2023/05/07 00:33:57;;;;;;;2.70;2.50;;;25.00;59.10;;;;;;5053907;28;20541;-74
2023/05/07 00:36:27;;;;;;;2.63;2.53;;;25.00;59.10;;;;;;5054291;28;20654;-74
2023/05/07 00:38:56;;;;;;;2.67;2.43;;;25.00;59.10;;;;;;5067914;28;20970;-73
2023/05/07 00:41:24;;;;;;;2.63;2.53;;;25.00;59.10;;;;;;5064157;28;20540;-73
2023/05/07 00:43:52;;;;;;;2.93;2.80;;;25.00;59.10;;;;;;5091837;28;20521;-74
2023/05/07 00:46:22;;;;;;;2.90;2.40;;;25.00;59.10;;;;;;5092201;28;20425;-72
2023/05/07 00:48:51;;;;;;;2.70;2.60;;;25.00;59.10;;;;;;5057080;28;20454;-71
2023/05/07 00:51:20;;;;;;;3.20;3.00;;;25.00;59.20;;;;;;5072038;28;20447;-72
2023/05/07 00:53:50;;;;;;;3.00;2.80;;;25.00;59.20;;;;;;5054409;28;20478;-72
2023/05/07 00:56:18;;;;;;;2.53;2.43;;;25.00;59.20;;;;;;5054126;28;20534;-72
2023/05/07 00:58:47;;;;;;;2.77;2.57;;;25.00;59.30;;;;;;5053862;28;20534;-72
2023/05/07 01:01:16;;;;;;;2.63;2.43;;;25.00;59.20;;;;;;5071100;28;20439;-72
2023/05/07 01:03:45;;;;;;;2.60;2.40;;;25.00;59.30;;;;;;5071872;28;20465;-72
2023/05/07 01:06:16;;;;;;;2.40;2.30;;;25.00;59.20;;;;;;5072501;28;20426;-71
2023/05/07 01:08:46;;;;;;;2.50;2.40;;;25.00;59.30;;;;;;5072008;28;20440;-72
2023/05/07 01:11:16;;;;;;;3.13;2.87;;;25.00;59.30;;;;;;5053963;28;20488;-71
2023/05/07 01:13:45;;;;;;;2.60;2.40;;;25.00;59.40;;;;;;5053715;28;20968;-72
2023/05/07 01:16:13;;;;;;;2.83;2.63;;;25.00;59.30;;;;;;5071251;28;20488;-71
2023/05/07 01:18:44;;;;;;;2.80;2.60;;;25.00;59.30;;;;;;5053684;28;20506;-72
2023/05/07 01:21:14;;;;;;;2.77;2.67;;;24.90;59.40;;;;;;5053651;28;20462;-71
2023/05/07 01:23:44;;;;;;;2.70;2.60;;;24.90;59.40;;;;;;5053672;28;20950;-71
2023/05/07 01:26:13;;;;;;;2.63;2.53;;;24.90;59.40;;;;;;5070700;28;21136;-71
2023/05/07 01:28:44;;;;;;;2.77;2.67;;;24.90;59.40;;;;;;5048274;28;20452;-72
2023/05/07 01:31:14;;;;;;;2.50;2.40;;;24.90;59.40;;;;;;5050221;28;20467;-72
2023/05/07 01:33:44;;;;;;;2.50;2.40;;;24.90;59.40;;;;;;5043556;28;20462;-70
2023/05/07 01:36:14;;;;;;;2.83;2.53;;;24.90;59.40;;;;;;5071421;28;20491;-71
2023/05/07 01:38:44;;;;;;;2.90;2.70;;;24.90;59.40;;;;;;5073117;28;21013;-72
2023/05/07 01:41:13;;;;;;;2.47;2.33;;;24.90;59.40;;;;;;5091968;28;20969;-72
2023/05/07 01:43:43;;;;;;;3.03;2.83;;;24.90;59.50;;;;;;5073099;28;20457;-72
2023/05/07 01:46:12;;;;;;;3.07;2.87;;;24.90;59.50;;;;;;5091434;28;20454;-72
2023/05/07 01:48:41;;;;;;;2.60;2.43;;;24.90;59.50;;;;;;5069470;28;20489;-72
2023/05/07 01:51:10;;;;;;;2.87;2.67;;;24.90;59.50;;;;;;5071293;28;20435;-72
2023/05/07 01:53:39;;;;;;;3.03;2.83;;;24.90;59.50;;;;;;5054425;28;20455;-72
2023/05/07 01:56:08;;;;;;;2.20;2.10;;;24.90;59.50;;;;;;5071738;28;20537;-72
2023/05/07 01:58:39;;;;;;;2.60;2.50;;;24.90;59.50;;;;;;5052741;28;20536;-72
2023/05/07 02:01:08;;;;;;;2.47;2.27;;;24.80;59.50;;;;;;5052881;28;20452;-72
2023/05/07 02:03:37;;;;;;;2.67;2.57;;;24.80;59.50;;;;;;5053514;28;20518;-72
2023/05/07 02:06:12;;;;;;;2.90;2.60;;;24.80;59.50;;;;;;5051149;28;20488;-71
2023/05/07 02:08:41;;;;;;;2.73;2.53;;;24.80;59.50;;;;;;5045999;28;21378;-71
2023/05/07 02:11:11;;;;;;;2.43;2.33;;;24.80;59.50;;;;;;5057994;28;20850;-72
2023/05/07 02:13:40;;;;;;;2.27;2.17;;;24.80;59.50;;;;;;5070445;28;20459;-71
2023/05/07 02:16:08;;;;;;;2.70;2.50;;;24.80;59.50;;;;;;5064017;28;20496;-72
2023/05/07 02:18:36;;;;;;;2.90;2.70;;;24.80;59.50;;;;;;5036435;28;20466;-72
2023/05/07 02:21:04;;;;;;;2.60;2.43;;;24.80;59.50;;;;;;5053370;28;20450;-72
2023/05/07 02:23:33;;;;;;;2.50;2.40;;;24.80;59.50;;;;;;5053414;28;20463;-71
2023/05/07 02:26:02;;;;;;;2.30;2.20;;;24.80;59.60;;;;;;5067620;28;21016;-72
2023/05/07 02:28:32;;;;;;;2.40;2.30;;;24.80;59.60;;;;;;5057706;28;21110;-72
2023/05/07 02:31:03;;;;;;;2.77;2.67;;;24.80;59.60;;;;;;5056700;28;20544;-72
2023/05/07 02:33:34;;;;;;;2.93;2.73;;;24.80;59.60;;;;;;5047988;28;20464;-72
2023/05/07 02:36:07;;;;;;;2.60;2.50;;;24.80;59.60;;;;;;5076700;28;20462;-71
2023/05/07 02:38:38;;;;;;;2.40;2.30;;;24.80;59.60;;;;;;5073399;28;20470;-72
2023/05/07 02:41:06;;;;;;;2.47;2.37;;;24.80;59.60;;;;;;5072884;28;20496;-72
2023/05/07 02:43:36;;;;;;;2.13;2.03;;;24.80;59.60;;;;;;5074260;28;21098;-71
2023/05/07 02:46:05;;;;;;;2.90;2.73;;;24.80;59.60;;;;;;5074190;28;20446;-71
2023/05/07 02:48:36;;;;;;;2.50;2.40;;;24.70;59.60;;;;;;5056447;28;20536;-72
2023/05/07 02:51:05;;;;;;;2.20;2.10;;;24.70;59.60;;;;;;5056573;28;20485;-72
2023/05/07 02:53:35;;;;;;;2.70;2.50;;;24.70;59.60;;;;;;5059186;28;20533;-72
2023/05/07 02:56:03;;;;;;;3.20;2.27;;;24.70;59.60;;;;;;5074435;28;20465;-71
2023/05/07 02:58:32;;;;;;;2.57;2.47;;;24.70;59.60;;;;;;5073501;28;20485;-72
2023/05/07 03:01:03;;;;;;;2.10;2.00;;;24.70;59.70;;;;;;5058625;28;20458;-72
2023/05/07 03:03:36;;;;;;;2.37;2.27;;;24.70;59.70;;;;;;5065479;28;20969;-72
2023/05/07 03:06:05;;;;;;;2.40;2.30;;;24.70;59.60;;;;;;5074479;28;20445;-72
2023/05/07 03:08:36;;;;;;;2.33;2.23;;;24.70;59.70;;;;;;5056214;28;20824;-72
2023/05/07 03:11:04;;;;;;;2.20;2.10;;;24.70;59.70;;;;;;5074174;28;20923;-72
2023/05/07 03:13:33;;;;;;;2.23;2.13;;;24.70;59.70;;;;;;5093132;28;20483;-71
2023/05/07 03:16:02;;;;;;;2.40;2.30;;;24.70;59.70;;;;;;5075875;28;20490;-72
2023/05/07 03:18:30;;;;;;;2.27;2.17;;;24.70;59.70;;;;;;5091992;28;20540;-72
2023/05/07 03:20:59;;;;;;;2.37;2.27;;;24.70;59.70;;;;;;5073057;28;20472;-71
2023/05/07 03:23:27;;;;;;;2.07;1.87;;;24.70;59.70;;;;;;5073833;28;20431;-72
2023/05/07 03:25:55;;;;;;;3.03;2.83;;;24.70;59.70;;;;;;5075876;28;20522;-72
2023/05/07 03:28:24;;;;;;;1.87;1.77;;;24.70;59.70;;;;;;5073512;28;20451;-71
2023/05/07 03:30:57;;;;;;;2.17;2.07;;;24.70;59.70;;;;;;5055389;28;20471;-72
2023/05/07 03:33:27;;;;;;;2.53;2.37;;;24.70;59.70;;;;;;5055214;28;20446;-72
2023/05/07 03:35:56;;;;;;;2.00;1.90;;;24.60;59.70;;;;;;5071495;28;20472;-70
2023/05/07 03:38:26;;;;;;;1.97;1.87;;;24.60;59.70;;;;;;5075112;28;20940;-71
2023/05/07 03:40:55;;;;;;;2.20;2.10;;;24.60;59.70;;;;;;5073113;28;20478;-72
2023/05/07 03:43:23;;;;;;;2.17;2.07;;;24.60;59.70;;;;;;5073350;28;20499;-71
2023/05/07 03:45:59;;;;;;;2.50;2.30;;;24.60;59.70;;;;;;5088539;28;20536;-70
2023/05/07 03:48:30;;;;;;;2.30;2.20;;;24.60;59.70;;;;;;5061664;28;20467;-70
2023/05/07 03:51:00;;;;;;;2.57;2.37;;;24.60;59.70;;;;;;5055614;28;20455;-70
2023/05/07 03:53:33;;;;;;;2.27;2.17;;;24.60;59.70;;;;;;5055293;28;20454;-71
2023/05/07 03:56:01;;;;;;;2.10;2.00;;;24.60;59.70;;;;;;5054841;28;20535;-71
2023/05/07 03:58:34;;;;;;;1.80;1.70;;;24.60;59.70;;;;;;5054465;28;20458;-70
2023/05/07 04:01:07;;;;;;;2.20;2.10;;;24.60;59.80;;;;;;5054350;28;20473;-71
2023/05/07 04:03:37;;;;;;;3.00;2.80;;;24.60;59.70;;;;;;5054874;28;20457;-72
2023/05/07 04:06:05;;;;;;;2.27;2.17;;;24.60;59.70;;;;;;5073087;28;20446;-70
2023/05/07 04:08:35;;;;;;;2.07;1.97;;;24.60;59.70;;;;;;5051909;28;20467;-71
2023/05/07 04:11:05;;;;;;;2.10;2.00;;;24.60;59.70;;;;;;5050177;28;20478;-71
2023/05/07 04:13:35;;;;;;;2.07;1.97;;;24.60;59.70;;;;;;5063879;28;20546;-69
2023/05/07 04:16:07;;;;;;;2.20;2.10;;;24.60;59.70;;;;;;5074913;28;20453;-72
2023/05/07 04:18:38;;;;;;;1.87;1.77;;;24.60;59.80;;;;;;5047842;28;20460;-72
2023/05/07 04:21:07;;;;;;;2.07;1.97;;;24.60;59.70;;;;;;5052663;28;20467;-72
2023/05/07 04:23:38;;;;;;;2.40;2.30;;;24.60;59.80;;;;;;5034967;28;20451;-72
2023/05/07 04:26:10;;;;;;;1.90;1.80;;;24.60;59.70;;;;;;5034446;28;20501;-71
2023/05/07 04:28:42;;;;;;;2.10;2.00;;;24.60;59.80;;;;;;5071718;28;20454;-72
2023/05/07 04:31:11;;;;;;;2.10;1.97;;;24.60;59.80;;;;;;5059847;28;20471;-72
2023/05/07 04:33:41;;;;;;;2.30;2.10;;;24.60;59.80;;;;;;5064452;28;20457;-72
2023/05/07 04:36:12;;;;;;;2.20;2.10;;;24.60;59.70;;;;;;5042913;28;20507;-71
2023/05/07 04:38:48;;;;;;;1.77;1.67;;;24.60;59.70;;;;;;5037161;28;20947;-72
2023/05/07 04:41:17;;;;;;;2.37;2.20;;;24.60;59.70;;;;;;5054108;28;20512;-71
2023/05/07 04:43:45;;;;;;;1.97;1.87;;;24.60;59.70;;;;;;5071813;28;20496;-73
2023/05/07 04:46:15;;;;;;;2.30;2.17;;;24.60;59.70;;;;;;5053574;28;20460;-72
2023/05/07 04:48:46;;;;;;;1.77;1.67;;;24.60;59.70;;;;;;5053627;28;20470;-71
2023/05/07 04:51:14;;;;;;;2.13;2.03;;;24.60;59.70;;;;;;5064655;28;20467;-71
2023/05/07 04:53:43;;;;;;;2.07;1.93;;;24.60;59.80;;;;;;5066700;28;20471;-71
2023/05/07 04:56:11;;;;;;;2.07;1.90;;;24.60;59.70;;;;;;5054604;28;20465;-70
2023/05/07 04:58:42;;;;;;;2.07;1.97;;;24.60;59.70;;;;;;5071904;28;20868;-72
2023/05/07 05:01:11;;;;;;;1.80;1.70;;;24.60;59.70;;;;;;5054559;28;20465;-72
2023/05/07 05:03:40;;;;;;;2.20;2.10;;;24.60;59.70;;;;;;5053698;28;20464;-72
2023/05/07 05:06:11;;;;;;;1.93;1.83;;;24.60;59.70;;;;;;5075607;28;20452;-70
2023/05/07 05:08:39;;;;;;;1.83;1.73;;;24.60;59.70;;;;;;5074443;28;20543;-71
2023/05/07 05:11:07;;;;;;;1.83;1.73;;;24.60;59.70;;;;;;5070054;28;20450;-72
2023/05/07 05:13:36;;;;;;;2.00;1.90;;;24.60;59.70;;;;;;5053606;28;20997;-72
2023/05/07 05:16:16;;;;;;;1.97;1.87;;;24.60;59.70;;;;;;5053300;28;20458;-72
2023/05/07 05:18:45;;;;;;;2.03;1.93;;;24.60;59.70;;;;;;5051440;28;20579;-72
2023/05/07 05:21:16;;;;;;;1.50;1.50;;;24.60;59.70;;;;;;5051098;28;20847;-72
2023/05/07 05:23:47;;;;;;;1.90;1.80;;;24.60;59.70;;;;;;5045425;28;20462;-72
2023/05/07 05:26:21;;;;;;;1.80;1.70;;;24.60;59.70;;;;;;5064493;28;20482;-72
2023/05/07 05:28:49;;;;;;;1.83;1.73;;;24.60;59.70;;;;;;5052537;28;20466;-71
2023/05/07 05:31:21;;;;;;;1.97;1.87;;;24.60;59.70;;;;;;5066233;28;20989;-73
2023/05/07 05:33:50;;;;;;;2.03;1.93;;;24.60;59.70;;;;;;5057941;28;20466;-73
2023/05/07 05:36:20;;;;;;;2.40;2.30;;;24.60;59.60;;;;;;5069944;28;20489;-73
2023/05/07 05:38:50;;;;;;;1.63;1.53;;;24.60;59.70;;;;;;5051655;28;20813;-73
2023/05/07 05:41:18;;;;;;;1.90;1.80;;;24.60;59.70;;;;;;5051465;28;20508;-74
2023/05/07 05:43:47;;;;;;;1.80;1.70;;;24.60;59.70;;;;;;5053610;28;20992;-74
2023/05/07 05:46:16;;;;;;;2.10;2.00;;;24.70;59.70;;;;;;5050535;28;20474;-73
2023/05/07 05:48:44;;;;;;;2.10;2.00;;;24.70;59.60;;;;;;5052250;28;20450;-73
2023/05/07 05:51:12;;;;;;;2.27;2.13;;;24.70;59.60;;;;;;5054911;28;20877;-73
2023/05/07 05:53:42;;;;;;;1.73;1.63;;;24.70;59.60;;;;;;5070466;28;20790;-73
2023/05/07 05:56:11;;;;;;;1.73;1.63;;;24.70;59.60;;;;;;5070405;28;21292;-74
2023/05/07 05:58:41;;;;;;;1.43;1.43;;;24.70;59.60;;;;;;5051626;28;20515;-74
2023/05/07 06:01:11;;;;;;;1.87;1.77;;;24.70;59.60;;;;;;5070178;28;20555;-73
2023/05/07 06:03:39;;;;;;;1.97;1.87;;;24.70;59.60;;;;;;5067105;28;20464;-73
2023/05/07 06:06:14;;;;;;;1.50;1.50;;;24.70;59.60;;;;;;5071989;28;20437;-73
2023/05/07 06:08:45;;;;;;;2.00;1.90;;;24.70;59.60;;;;;;5054900;28;20466;-73
2023/05/07 06:11:18;;;;;;;1.63;1.60;;;24.70;59.60;;;;;;5050820;28;20479;-72
2023/05/07 06:13:47;;;;;;;2.00;1.90;;;24.80;59.60;;;;;;5054272;28;20451;-74
2023/05/07 06:16:16;;;;;;;2.03;1.93;;;24.80;59.60;;;;;;5055169;28;20506;-74
2023/05/07 06:18:46;;;;;;;2.40;1.90;;;24.70;59.70;;;;;;5067860;28;20513;-73
2023/05/07 06:21:15;;;;;;;1.70;1.60;;;24.70;59.70;;;;;;5055732;28;20992;-73
2023/05/07 06:23:46;;;;;;;1.90;1.80;;;24.80;59.70;;;;;;5051937;28;20476;-73
2023/05/07 06:26:14;;;;;;;1.83;1.73;;;24.80;59.70;;;;;;5053091;28;20557;-74
2023/05/07 06:28:47;;;;;;;1.60;1.50;;;24.80;59.70;;;;;;5046092;28;20458;-74
2023/05/07 06:31:20;;;;;;;1.90;1.80;;;24.80;59.70;;;;;;5047187;28;20528;-73
2023/05/07 06:33:55;;;;;;;1.80;1.70;;;24.80;59.70;;;;;;5053327;28;20463;-73
2023/05/07 06:36:26;;;;;;;2.00;1.90;;;24.80;59.70;;;;;;5067397;28;20537;-74
2023/05/07 06:38:58;;;;;;;2.07;1.87;;;24.80;59.70;;;;;;5053472;28;20451;-74
2023/05/07 06:41:27;;;;;;;1.90;1.80;;;24.90;59.70;;;;;;5072785;28;20469;-74
2023/05/07 06:43:58;;;;;;;2.20;2.00;;;24.90;59.70;;;;;;5051100;28;20939;-74
2023/05/07 06:46:38;;;;;;;1.67;1.50;;;24.90;59.80;;;;;;5053204;28;20537;-73
2023/05/07 06:49:07;;;;;;;2.07;1.90;;;24.90;59.80;;;;;;5060178;28;20465;-75
2023/05/07 06:51:35;;;;;;;1.60;1.50;;;24.90;59.80;;;;;;5061387;28;20457;-74
2023/05/07 06:54:06;;;;;;;2.07;1.77;;;24.90;59.80;;;;;;5063303;28;20463;-75
2023/05/07 06:56:36;;;;;;;2.40;2.30;;;24.90;59.70;;;;;;5065129;28;20973;-74
2023/05/07 06:59:07;;;;;;;1.90;1.80;;;24.90;59.80;;;;;;5053260;28;20459;-75
2023/05/07 07:01:39;;;;;;;1.60;1.50;;;24.90;59.80;;;;;;5066369;28;20904;-74
2023/05/07 07:04:08;;;;;;;2.20;2.00;;;24.90;59.90;;;;;;5065038;28;20496;-75
2023/05/07 07:06:38;;;;;;;2.20;1.80;;;24.90;59.90;;;;;;5052101;28;20498;-75
2023/05/07 07:09:11;;;;;;;2.40;2.20;;;24.90;60.00;;;;;;5066438;28;20464;-75
2023/05/07 07:11:41;;;;;;;3.57;2.07;;;24.90;60.10;;;;;;5055335;28;20906;-75
2023/05/07 07:14:09;;;;;;;1.80;1.70;;;24.90;60.10;;;;;;5058098;28;20466;-74
2023/05/07 07:16:46;;;;;;;1.63;1.53;;;24.90;60.10;;;;;;5057131;28;20470;-72
2023/05/07 07:19:16;;;;;;;2.00;1.90;;;25.00;60.10;;;;;;5070670;28;20514;-71
2023/05/07 07:21:45;;;;;;;4.37;2.17;;;25.00;60.10;;;;;;5055019;28;20469;-73
2023/05/07 07:24:18;;;;;;;2.87;1.87;;;25.00;60.10;;;;;;5063272;28;20481;-72
2023/05/07 07:26:48;;;;;;;7.50;2.20;;;25.00;60.20;;;;;;5060489;28;21031;-72
2023/05/07 07:29:18;;;;;;;2.20;2.00;;;25.00;60.10;;;;;;5060967;28;20466;-72
2023/05/07 07:31:48;;;;;;;1.93;1.83;;;25.00;60.10;;;;;;5071552;28;20457;-72
2023/05/07 07:34:18;;;;;;;2.70;1.63;;;25.00;60.00;;;;;;5061228;28;20547;-72
2023/05/07 07:36:46;;;;;;;2.03;1.90;;;25.00;60.10;;;;;;5062707;28;20475;-72
2023/05/07 07:39:19;;;;;;;4.27;1.60;;;25.00;60.00;;;;;;5065817;28;20563;-73
2023/05/07 07:41:50;;;;;;;1.87;1.70;;;25.00;60.10;;;;;;5058176;28;20480;-71
2023/05/07 07:44:20;;;;;;;2.13;2.03;;;25.00;60.10;;;;;;5074658;28;20544;-72
2023/05/07 07:46:53;;;;;;;1.80;1.70;;;25.10;60.00;;;;;;5074015;28;20454;-72
2023/05/07 07:49:24;;;;;;;1.77;1.63;;;25.10;60.00;;;;;;5071998;28;20443;-71
2023/05/07 07:51:52;;;;;;;2.77;2.20;;;25.10;60.00;;;;;;5057254;28;20540;-74
2023/05/07 07:54:21;;;;;;;2.10;1.90;;;25.10;60.10;;;;;;5081455;28;20454;-74
2023/05/07 07:56:50;;;;;;;1.93;1.83;;;25.10;60.10;;;;;;5058725;28;20458;-74
2023/05/07 07:59:20;;;;;;;1.93;1.80;;;25.10;60.10;;;;;;5059681;28;20464;-73
2023/05/07 08:01:52;;;;;;;2.43;2.00;;;25.10;60.10;;;;;;5060208;28;20475;-75
2023/05/07 08:04:23;;;;;;;3.70;3.03;;;25.10;60.10;;;;;;5062361;28;20484;-72
2023/05/07 08:06:54;;;;;;;3.27;2.90;;;25.10;62.40;;;;;;5059619;28;20997;-74
2023/05/07 08:09:23;;;;;;;5.73;3.20;;;25.10;63.40;;;;;;5065673;28;20495;-74
2023/05/07 08:11:53;;;;;;;4.73;2.50;;;25.20;62.90;;;;;;5059062;28;20471;-75
2023/05/07 08:14:22;;;;;;;3.60;1.97;;;25.20;62.80;;;;;;5074801;28;20461;-75
2023/05/07 08:16:50;;;;;;;5.90;2.23;;;25.20;62.30;;;;;;5072514;28;20871;-74
2023/05/07 08:19:18;;;;;;;2.33;2.10;;;25.20;62.00;;;;;;5066039;28;20516;-75
2023/05/07 08:21:47;;;;;;;3.90;2.70;;;25.20;61.70;;;;;;5060278;28;20523;-73
2023/05/07 08:24:16;;;;;;;3.77;2.60;;;25.30;61.60;;;;;;5067036;28;20547;-74
2023/05/07 08:26:47;;;;;;;4.33;2.47;;;25.30;62.40;;;;;;5047555;28;20965;-73
2023/05/07 08:29:15;;;;;;;3.80;2.40;;;25.20;63.90;;;;;;5073875;28;20512;-75
2023/05/07 08:31:44;;;;;;;7.43;3.30;;;25.20;64.00;;;;;;5054786;28;20485;-74
2023/05/07 08:34:12;;;;;;;3.20;2.90;;;25.30;63.80;;;;;;5055801;28;20460;-74
2023/05/07 08:40:43;;;;;;;4.37;2.60;;;25.30;63.70;;;;;;5080914;28;20462;-73
2023/05/07 08:43:20;;;;;;;2.33;2.13;;;25.30;63.70;;;;;;5050472;28;20818;-74
2023/05/07 08:45:52;;;;;;;2.70;2.33;;;25.30;63.70;;;;;;5052219;28;20475;-74
2023/05/07 08:48:25;;;;;;;4.87;2.30;;;25.30;63.60;;;;;;5061526;28;20458;-73
2023/05/07 08:51:01;;;;;;;4.27;2.20;;;25.30;63.60;;;;;;5051949;28;20461;-74
2023/05/07 08:53:29;;;;;;;7.40;3.23;;;25.30;63.40;;;;;;5069359;28;20473;-77
2023/05/07 08:55:58;;;;;;;3.40;2.50;;;25.30;63.30;;;;;;5047514;28;20461;-74
2023/05/07 08:58:28;;;;;;;3.90;2.70;;;25.40;63.00;;;;;;5052124;28;20951;-74
2023/05/07 09:00:57;;;;;;;3.90;2.60;;;25.40;62.90;;;;;;5051657;28;20474;-74
2023/05/07 09:03:25;;;;;;;3.50;2.20;;;25.40;62.80;;;;;;5072218;28;20983;-75
2023/05/07 09:05:56;;;;;;;3.60;2.57;;;25.40;62.80;;;;;;5051309;28;20453;-74
2023/05/07 09:08:27;;;;;;;3.50;2.60;;;25.40;62.70;;;;;;5058473;28;20463;-74
2023/05/07 09:10:58;;;;;;;3.97;2.30;;;25.40;62.70;;;;;;5053492;28;20740;-73
2023/05/07 09:13:29;;;;;;;3.00;2.70;;;25.40;62.70;;;;;;5059742;28;20502;-75
2023/05/07 09:15:58;;;;;;;6.80;2.40;;;25.40;62.70;;;;;;5054825;28;20511;-78
2023/05/07 09:18:27;;;;;;;6.90;3.17;;;25.50;62.60;;;;;;5053879;28;20562;-72
2023/05/07 09:20:56;;;;;;;4.70;2.50;;;25.40;62.80;;;;;;5060393;28;20544;-74
2023/05/07 09:23:25;;;;;;;5.80;3.00;;;25.40;62.90;;;;;;5068574;28;20473;-73
2023/05/07 09:26:01;;;;;;;3.50;2.30;;;25.40;62.90;;;;;;5069797;28;20501;-75
2023/05/07 09:28:34;;;;;;;4.50;2.67;;;25.40;62.90;;;;;;5050574;28;20852;-72
2023/05/07 09:31:03;;;;;;;6.10;2.40;;;25.50;62.80;;;;;;5042729;28;20464;-73
2023/05/07 09:33:31;;;;;;;4.33;2.90;;;25.50;62.70;;;;;;5069665;28;20453;-74
2023/05/07 09:36:07;;;;;;;3.27;2.57;;;25.50;62.70;;;;;;5053000;28;20492;-73
2023/05/07 09:38:37;;;;;;;5.00;4.50;;;25.50;62.60;;;;;;5060567;28;20555;-73
2023/05/07 09:41:08;;;;;;;2.23;2.03;;;25.50;62.60;;;;;;5064481;28;20477;-73
2023/05/07 09:43:46;;;;;;;4.40;2.97;;;25.50;62.50;;;;;;5066784;28;20472;-71
2023/05/07 09:46:17;;;;;;;3.13;2.50;;;25.50;62.50;;;;;;5058310;28;20519;-72
2023/05/07 09:48:54;;;;;;;3.73;1.90;;;25.50;62.50;;;;;;5049559;28;20459;-72
2023/05/07 09:51:29;;;;;;;2.50;2.30;;;25.50;62.50;;;;;;5080098;28;20467;-72
2023/05/07 09:54:03;;;;;;;3.83;2.70;;;25.50;62.40;;;;;;5076476;28;20528;-73
2023/05/07 09:56:37;;;;;;;3.20;2.50;;;25.50;62.40;;;;;;5073019;28;20526;-73
2023/05/07 09:59:09;;;;;;;3.43;2.20;;;25.50;62.40;;;;;;5046261;28;20704;-75
2023/05/07 10:01:38;;;;;;;2.67;2.40;;;25.50;62.30;;;;;;5071529;28;20448;-74
2023/05/07 10:04:08;;;;;;;3.27;2.50;;;25.60;62.30;;;;;;5075314;28;20571;-75
2023/05/07 10:06:38;;;;;;;3.43;2.73;;;25.60;62.20;;;;;;5054618;28;21036;-75
2023/05/07 10:09:07;;;;;;;5.73;3.33;;;25.60;62.30;;;;;;5054982;28;20548;-73
2023/05/07 10:11:38;;;;;;;3.23;2.33;;;25.60;62.20;;;;;;5052608;28;20467;-73
2023/05/07 10:14:08;;;;;;;3.40;3.00;;;25.60;62.30;;;;;;5056100;28;20468;-72
2023/05/07 10:16:38;;;;;;;4.40;2.53;;;25.60;62.20;;;;;;5070610;28;20469;-71
2023/05/07 10:19:12;;;;;;;2.43;2.23;;;25.60;62.10;;;;;;5073236;28;20925;-72
2023/05/07 10:21:49;;;;;;;3.00;2.70;;;25.60;62.00;;;;;;5049357;28;20556;-72
2023/05/07 10:24:23;;;;;;;2.90;2.40;;;25.60;62.10;;;;;;5071325;28;20507;-73
2023/05/07 10:26:54;;;;;;;4.30;2.63;;;25.70;62.00;;;;;;5075430;28;20506;-71
2023/05/07 10:29:38;;;;;;;3.63;2.63;;;25.70;62.00;;;;;;5069415;28;20464;-71
2023/05/07 10:32:30;;;;;;;3.20;2.40;;;25.70;62.00;;;;;;5065363;28;20483;-72
2023/05/07 10:35:03;;;;;;;2.90;2.63;;;25.70;61.90;;;;;;5052224;28;20470;-71
2023/05/07 10:37:33;;;;;;;2.90;2.20;;;25.70;61.90;;;;;;5048104;28;20458;-70
2023/05/07 10:40:02;;;;;;;2.40;2.20;;;25.70;61.80;;;;;;5032840;28;20470;-71
2023/05/07 10:42:32;;;;;;;2.63;2.43;;;25.70;61.80;;;;;;5033882;28;20490;-71
2023/05/07 10:45:15;;;;;;;7.23;2.40;;;25.70;61.80;;;;;;5057138;28;20545;-72
2023/05/07 10:48:12;;;;;;;3.80;2.93;;;25.70;61.90;;;;;;5065424;28;20521;-71
2023/05/07 10:50:50;;;;;;;4.30;2.70;;;25.70;61.90;;;;;;5068566;28;20444;-71
2023/05/07 10:53:26;;;;;;;3.30;2.80;;;25.70;61.80;;;;;;5073849;28;20883;-70
2023/05/07 10:56:28;;;;;;;3.73;2.80;;;25.70;61.80;;;;;;5069666;28;20519;-71
2023/05/07 10:59:41;;;;;;;3.00;2.43;;;25.70;61.90;;;;;;5057193;28;20469;-71
2023/05/07 11:03:06;;;;;;;3.40;2.70;;;25.70;61.80;;;;;;5061578;28;20977;-71
2023/05/07 11:06:11;;;;;;;2.70;2.27;;;25.70;61.90;;;;;;5060639;28;20618;-71
2023/05/07 11:08:56;;;;;;;2.20;2.10;;;25.70;61.90;;;;;;5049264;28;21096;-73
2023/05/07 11:11:47;;;;;;;2.30;2.20;;;25.70;61.90;;;;;;5062791;28;20986;-72
2023/05/07 11:14:45;;;;;;;2.70;2.50;;;25.70;61.80;;;;;;5044955;28;20833;-73
2023/05/07 11:17:19;;;;;;;2.13;2.00;;;25.70;61.80;;;;;;5068679;28;20538;-72
2023/05/07 11:19:57;;;;;;;2.90;2.70;;;25.70;61.90;;;;;;5049026;28;20459;-73
2023/05/07 11:22:40;;;;;;;4.67;2.57;;;25.70;61.90;;;;;;5048466;28;20454;-71
2023/05/07 11:25:29;;;;;;;2.63;2.43;;;25.70;61.90;;;;;;5071764;28;20985;-72
2023/05/07 11:28:11;;;;;;;5.50;2.40;;;25.70;61.90;;;;;;5054187;28;21282;-71
2023/05/07 11:30:49;;;;;;;3.40;2.27;;;25.70;61.90;;;;;;5064385;28;20825;-71
2023/05/07 11:33:20;;;;;;;2.63;2.40;;;25.80;61.90;;;;;;5052447;28;20467;-72
2023/05/07 11:35:54;;;;;;;3.07;2.33;;;25.80;61.90;;;;;;5044342;28;20812;-71
2023/05/07 11:38:25;;;;;;;4.10;2.47;;;25.80;61.80;;;;;;5066489;28;20473;-72
2023/05/07 11:40:54;;;;;;;2.47;2.23;;;25.90;61.80;;;;;;5052808;28;20481;-72
2023/05/07 11:43:23;;;;;;;3.20;2.00;;;25.90;61.70;;;;;;5066044;28;21024;-72
2023/05/07 11:45:51;;;;;;;3.13;2.47;;;26.00;61.60;;;;;;5066929;28;20464;-72
2023/05/07 11:48:22;;;;;;;2.90;2.27;;;26.00;61.60;;;;;;5065342;28;20494;-72
2023/05/07 11:51:00;;;;;;;5.40;2.50;;;26.10;61.60;;;;;;5066075;28;20491;-73
2023/05/07 11:53:36;;;;;;;2.77;2.30;;;26.10;61.50;;;;;;5070216;28;20471;-71
2023/05/07 11:56:09;;;;;;;2.87;2.30;;;26.20;61.40;;;;;;5062624;28;20498;-72
2023/05/07 11:58:38;;;;;;;6.27;2.93;;;26.30;61.20;;;;;;5061192;28;20575;-73
2023/05/07 12:01:10;;;;;;;2.70;2.43;;;26.40;61.10;;;;;;5065359;28;20455;-72
2023/05/07 12:03:42;;;;;;;2.83;2.20;;;26.40;60.90;;;;;;5072168;28;20480;-73
2023/05/07 12:06:13;;;;;;;4.03;2.43;;;26.50;60.70;;;;;;5077741;28;20796;-73
2023/05/07 12:08:44;;;;;;;3.33;2.50;;;26.60;60.60;;;;;;5074412;28;20448;-73
2023/05/07 12:11:22;;;;;;;2.83;2.50;;;26.60;60.50;;;;;;5070390;28;20459;-72
2023/05/07 12:13:50;;;;;;;3.60;2.13;;;26.70;60.40;;;;;;5068878;28;20458;-71
2023/05/07 12:16:20;;;;;;;1.93;1.77;;;26.70;60.30;;;;;;5071069;28;20462;-71
2023/05/07 12:18:49;;;;;;;3.23;1.90;;;26.70;60.30;;;;;;5079980;28;20962;-72
2023/05/07 12:21:19;;;;;;;3.20;2.70;;;26.70;60.00;;;;;;5070657;28;20442;-72
2023/05/07 12:23:48;;;;;;;2.70;2.00;;;26.60;60.20;;;;;;5076787;28;20936;-73
2023/05/07 12:26:17;;;;;;;2.53;2.33;;;26.50;60.40;;;;;;5050828;28;20487;-72
2023/05/07 12:28:46;;;;;;;2.50;2.40;;;26.40;60.70;;;;;;5060142;28;20444;-73
2023/05/07 12:31:16;;;;;;;4.40;2.33;;;26.30;60.90;;;;;;5068256;28;20542;-72
2023/05/07 12:33:44;;;;;;;2.90;2.10;;;26.30;61.10;;;;;;5061874;28;20443;-72
2023/05/07 12:36:14;;;;;;;2.07;1.87;;;26.30;61.10;;;;;;5069690;28;20554;-72
2023/05/07 12:38:43;;;;;;;2.27;2.00;;;26.20;61.10;;;;;;5063546;28;20490;-72
2023/05/07 12:41:13;;;;;;;2.50;2.30;;;26.20;61.20;;;;;;5066854;28;20443;-72
2023/05/07 12:43:45;;;;;;;2.93;2.57;;;26.20;61.20;;;;;;5066057;28;20834;-73
2023/05/07 12:46:16;;;;;;;2.10;1.90;;;26.10;61.20;;;;;;5063427;28;20459;-73
2023/05/07 12:48:46;;;;;;;2.83;2.40;;;26.10;61.30;;;;;;5069126;28;20485;-73
2023/05/07 12:51:16;;;;;;;3.10;2.40;;;26.10;61.30;;;;;;5069641;28;20454;-72
2023/05/07 12:53:47;;;;;;;2.30;1.70;;;26.10;61.30;;;;;;5069241;28;20470;-72
2023/05/07 12:56:17;;;;;;;2.87;2.43;;;26.10;61.30;;;;;;5066250;28;20456;-73
2023/05/07 12:58:45;;;;;;;2.00;1.90;;;26.10;61.40;;;;;;5049199;28;20462;-73
2023/05/07 13:01:15;;;;;;;3.20;2.27;;;26.10;61.40;;;;;;5074617;28;20465;-73
2023/05/07 13:03:50;;;;;;;2.67;2.20;;;26.10;61.50;;;;;;5077444;28;20442;-73
2023/05/07 13:06:19;;;;;;;4.70;2.23;;;26.10;61.40;;;;;;5068435;28;20454;-73
2023/05/07 13:08:49;;;;;;;2.10;2.00;;;26.10;61.40;;;;;;5066840;28;20487;-74
2023/05/07 13:11:18;;;;;;;4.00;2.80;;;26.10;61.40;;;;;;5068101;28;20780;-72
2023/05/07 13:13:46;;;;;;;2.17;1.97;;;26.10;61.30;;;;;;5069764;28;20456;-77